LiveATC.Net - Listen to live air traffic control over the Internet!


ICAO: C77  IATA: C77   Airport: Poplar Grove Airport
City: Poplar Grove   State/Province: Illinois
Country: United States   Continent: North America
KRFD METAR Weather: KRFD 132354Z 15008KT 10SM FEW037 BKN060 BKN090 25/20 A2992 RMK AO2 SLP128 60004 T02500200 10261 20194 58013
C77 Flight Activity (FlightAware)
C77 Webcam:  (Airport Webcams) 

C77/1C8/KFEP CTAF
Feed Status: UP   Listeners: 0
Listen in your browser - HTML5 player (in browser, HTML5)
Click here to listen with your own player (launches your MP3 player)
Archive Access: C77/1C8/KFEP CTAF
FacilityFrequency
Poplar Grove/Cottonwood/Albertus CTAF122.800

NOTICE

Unauthorized use prohibited. See LiveATC.net Terms of Service


Airport/ARTCC Code
Frequency Search
(e.g., 124.400, 128.75)
Site-wide search
 


Browse Feeds
Top 50 Feeds
HF Oceanic Feeds
Coverage Map
Bad Weather Areas

LiveATC FAQ
Offer LiveATC feed
Contact LiveATC.net
Press Inquiries

LiveATC on iPhone
LiveATC on Android

LiveATC Mobile
(Mobile browser)

ATC Audio Archives
Interesting Recordings

LiveATC Forums


Home Page
About LiveATC.net


Terms of Use
Privacy Policy

AIRMETs/SIGMETs

FAA Airport Status
NAS Status
Arrival Demand


Server Software By:
Icecast.org
Liquidsoap